This is the latest recevied weather packets stored in our database for station/object KG5CK-1. If no packets are shown the sender has not sent any weather packets the latest 10 day(s).
| Time | Temp. | Humidity | Pressure | Rain* | Wind** | Luminosity | Snow |
|---|---|---|---|---|---|---|---|
| 1777466343 | 15° C | 84% | 1011.1 hPa | 0 mm | 1.34 m/s, 91° | - | - |
| 1777466283 | 15° C | 84% | 1011.1 hPa | 0 mm | 1.34 m/s, 91° | - | - |
| 1777466223 | 15° C | 84% | 1011.1 hPa | 0 mm | 1.34 m/s, 91° | - | - |
| 1777466163 | 15° C | 84% | 1011.1 hPa | 0 mm | 1.34 m/s, 91° | - | - |
| 1777466103 | 15.56° C | 84% | 1010.7 hPa | 0 mm | 2.24 m/s, 5° | - | - |
| 1777466043 | 15.56° C | 84% | 1010.7 hPa | 0 mm | 2.24 m/s, 5° | - | - |
| 1777465983 | 15.56° C | 84% | 1010.7 hPa | 0 mm | 2.24 m/s, 5° | - | - |
| 1777465923 | 15.56° C | 84% | 1010.7 hPa | 0 mm | 2.24 m/s, 5° | - | - |
| 1777465863 | 15.56° C | 84% | 1010.7 hPa | 0 mm | 2.24 m/s, 5° | - | - |
| 1777465803 | 15.56° C | 84% | 1010.6 hPa | 0 mm | 1.79 m/s, 29° | - | - |
| 1777465743 | 15.56° C | 84% | 1010.6 hPa | 0 mm | 1.79 m/s, 29° | - | - |
| 1777465683 | 15.56° C | 84% | 1010.6 hPa | 0 mm | 1.79 m/s, 29° | - | - |
| 1777465623 | 15.56° C | 84% | 1010.6 hPa | 0 mm | 1.79 m/s, 29° | - | - |
| 1777465563 | 15.56° C | 84% | 1010.6 hPa | 0 mm | 1.79 m/s, 29° | - | - |
| 1777465503 | 15.56° C | 83% | 1010.2 hPa | 0 mm | 1.34 m/s, 44° | - | - |
| 1777465443 | 15.56° C | 83% | 1010.2 hPa | 0 mm | 1.34 m/s, 44° | - | - |
| 1777465383 | 15.56° C | 83% | 1010.2 hPa | 0 mm | 1.34 m/s, 44° | - | - |
| 1777465323 | 15.56° C | 83% | 1010.2 hPa | 0 mm | 1.34 m/s, 44° | - | - |
| 1777465263 | 15.56° C | 83% | 1010.2 hPa | 0 mm | 1.34 m/s, 44° | - | - |
| 1777465203 | 15.56° C | 83% | 1010.2 hPa | 0 mm | 1.79 m/s, 42° | - | - |
| 1777465143 | 15.56° C | 83% | 1010.2 hPa | 0 mm | 1.79 m/s, 42° | - | - |
| 1777465083 | 15.56° C | 83% | 1010.2 hPa | 0 mm | 1.79 m/s, 42° | - | - |
| 1777465023 | 15.56° C | 83% | 1010.2 hPa | 0 mm | 1.79 m/s, 42° | - | - |
| 1777464963 | 15.56° C | 83% | 1010.2 hPa | 0 mm | 1.79 m/s, 42° | - | - |
| 1777464902 | 15.56° C | 83% | 1010.1 hPa | 0 mm | 0.45 m/s, 49° | - | - |
* Rain latest hour (hover to see other rain measurements)
** Current wind speed in m/s (hover to see current wind gust speed)